Time;durP1;ratioP1;P1;durP2;ratioP2;P2;SDS_P1;SDS_P2;PMS_P1;PMS_P2;Temp;Humidity;BMP_temperature;BMP_pressure;BME280_temperature;BME280_humidity;BME280_pressure;Samples;Min_cycle;Max_cycle;Signal;HPM_P1;HPM_P2
2022/02/23 00:00:16;;;;;;;;;;;6.10;99.90;;;;;;5034762;28;19988;-72
2022/02/23 00:02:41;;;;;;;;;;;6.20;99.90;;;;;;5033423;28;19910;-72
2022/02/23 00:05:07;;;;;;;;;;;6.20;99.90;;;;;;5033502;28;19932;-72
2022/02/23 00:07:33;;;;;;;;;;;6.10;99.90;;;;;;5032081;28;19920;-72
2022/02/23 00:09:58;;;;;;;;;;;6.20;99.90;;;;;;5033356;28;19909;-72
2022/02/23 00:12:24;;;;;;;;;;;6.20;99.90;;;;;;5033067;28;19909;-73
2022/02/23 00:14:50;;;;;;;;;;;6.20;99.90;;;;;;5032772;28;19909;-73
2022/02/23 00:17:15;;;;;;;;;;;6.10;99.90;;;;;;5032303;28;19910;-73
2022/02/23 00:19:41;;;;;;;;;;;6.10;99.90;;;;;;5032786;28;19913;-72
2022/02/23 00:22:06;;;;;;;;;;;6.10;99.90;;;;;;5032958;28;19909;-73
2022/02/23 00:24:32;;;;;;;;;;;6.10;99.90;;;;;;5032926;28;20012;-73
2022/02/23 00:26:58;;;;;;;;;;;6.10;99.90;;;;;;5032672;28;20357;-72
2022/02/23 00:29:23;;;;;;;;;;;6.10;99.90;;;;;;5032989;28;19952;-73
2022/02/23 00:31:49;;;;;;;;;;;6.10;99.90;;;;;;5032936;28;20000;-73
2022/02/23 00:34:14;;;;;;;;;;;6.10;99.90;;;;;;5032802;28;20353;-73
2022/02/23 00:36:41;;;;;;;;;;;6.10;99.90;;;;;;5033133;28;19909;-73
2022/02/23 00:39:06;;;;;;;;;;;6.00;99.90;;;;;;5032602;28;19909;-73
2022/02/23 00:41:32;;;;;;;;;;;5.90;99.90;;;;;;5032826;28;20004;-73
2022/02/23 00:43:58;;;;;;;;;;;5.90;99.90;;;;;;5032975;28;19918;-73
2022/02/23 00:46:24;;;;;;;;;;;6.00;99.90;;;;;;5032922;28;19916;-73
2022/02/23 00:48:49;;;;;;;;;;;6.00;99.90;;;;;;5032800;28;19917;-73
2022/02/23 00:51:15;;;;;;;;;;;6.00;99.90;;;;;;5032717;28;19909;-73
2022/02/23 00:53:41;;;;;;;;;;;6.00;99.90;;;;;;5031542;28;19916;-73
2022/02/23 00:56:06;;;;;;;;;;;6.00;99.90;;;;;;5031228;28;19913;-73
2022/02/23 00:58:32;;;;;;;;;;;6.10;99.90;;;;;;5032702;28;19913;-73
2022/02/23 01:00:58;;;;;;;;;;;6.10;99.90;;;;;;5032443;28;20288;-73
2022/02/23 01:03:24;;;;;;;;;;;6.10;99.90;;;;;;5032596;28;20257;-73
2022/02/23 01:05:49;;;;;;;;;;;6.20;99.90;;;;;;5032157;28;19909;-73
2022/02/23 01:08:15;;;;;;;;;;;6.20;99.90;;;;;;5032555;28;19913;-73
2022/02/23 01:10:40;;;;;;;;;;;6.10;99.90;;;;;;5032477;28;20250;-73
2022/02/23 01:13:06;;;;;;;;;;;6.00;99.90;;;;;;5032043;28;19917;-73
2022/02/23 01:15:32;;;;;;;;;;;6.00;99.90;;;;;;5032305;28;19912;-74
2022/02/23 01:17:58;;;;;;;;;;;6.10;99.90;;;;;;5032258;28;20400;-74
2022/02/23 01:20:23;;;;;;;;;;;6.10;99.90;;;;;;5032351;28;19913;-73
2022/02/23 01:22:51;;;;;;;;;;;6.00;99.90;;;;;;5032272;28;19909;-73
2022/02/23 01:25:17;;;;;;;;;;;5.90;99.90;;;;;;5032378;28;19909;-73
2022/02/23 01:27:43;;;;;;;;;;;6.00;99.90;;;;;;5032158;28;19920;-73
2022/02/23 01:30:09;;;;;;;;;;;6.00;99.90;;;;;;5035825;28;19913;-73
2022/02/23 01:32:34;;;;;;;;;;;6.00;99.90;;;;;;5035730;28;20300;-73
2022/02/23 01:35:00;;;;;;;;;;;6.00;99.90;;;;;;5035741;28;20375;-73
2022/02/23 01:37:26;;;;;;;;;;;6.00;99.90;;;;;;5035734;28;19909;-73
2022/02/23 01:39:51;;;;;;;;;;;6.10;99.90;;;;;;5035737;28;19910;-73
2022/02/23 01:42:17;;;;;;;;;;;6.10;99.90;;;;;;5035574;28;19916;-73
2022/02/23 01:44:43;;;;;;;;;;;6.10;99.90;;;;;;5035732;28;19920;-73
2022/02/23 01:47:08;;;;;;;;;;;6.10;99.90;;;;;;5033970;28;19924;-73
2022/02/23 01:49:34;;;;;;;;;;;6.20;99.90;;;;;;5103605;22;19924;-77
2022/02/23 01:52:00;;;;;;;;;;;6.20;99.90;;;;;;5077689;28;19958;-76
2022/02/23 01:54:26;;;;;;;;;;;6.20;99.90;;;;;;5094543;28;19908;-77
2022/02/23 01:56:51;;;;;;;;;;;6.20;99.90;;;;;;5077628;28;19947;-75
2022/02/23 01:59:17;;;;;;;;;;;6.30;99.90;;;;;;5094498;28;20382;-76
2022/02/23 02:01:43;;;;;;;;;;;6.30;99.90;;;;;;5094745;28;19919;-76
2022/02/23 02:04:08;;;;;;;;;;;6.30;99.90;;;;;;5094260;28;19912;-76
2022/02/23 02:06:34;;;;;;;;;;;6.30;99.90;;;;;;5093444;28;20314;-76
2022/02/23 02:09:00;;;;;;;;;;;6.30;99.90;;;;;;5094288;28;20049;-76
2022/02/23 02:11:26;;;;;;;;;;;6.30;99.90;;;;;;5095675;28;19977;-75
2022/02/23 02:13:52;;;;;;;;;;;6.40;99.90;;;;;;5095544;28;19955;-76
2022/02/23 02:16:17;;;;;;;;;;;6.30;99.90;;;;;;5095475;28;20192;-78
2022/02/23 02:18:43;;;;;;;;;;;6.30;99.90;;;;;;5095672;28;20286;-77
2022/02/23 02:21:09;;;;;;;;;;;6.30;99.90;;;;;;5094161;28;20405;-76
2022/02/23 02:23:35;;;;;;;;;;;6.40;99.90;;;;;;5095645;28;19965;-80
2022/02/23 02:26:01;;;;;;;;;;;6.30;99.90;;;;;;5094116;28;19982;-76
2022/02/23 02:28:26;;;;;;;;;;;6.30;99.90;;;;;;5094672;28;19912;-78
2022/02/23 02:30:52;;;;;;;;;;;6.20;99.90;;;;;;5095349;28;20282;-77
2022/02/23 02:33:18;;;;;;;;;;;6.20;99.90;;;;;;5093908;28;19991;-78
2022/02/23 02:35:43;;;;;;;;;;;6.20;99.90;;;;;;5093588;28;20017;-78
2022/02/23 02:38:09;;;;;;;;;;;6.10;99.90;;;;;;5095245;28;19916;-79
2022/02/23 02:40:35;;;;;;;;;;;6.10;99.90;;;;;;5094364;28;19954;-79
2022/02/23 02:43:04;;;;;;;;;;;6.20;99.90;;;;;;5094845;28;19964;-77
2022/02/23 02:45:30;;;;;;;;;;;6.10;99.90;;;;;;5093570;28;20301;-83
2022/02/23 02:47:56;;;;;;;;;;;6.10;99.90;;;;;;5093693;28;19923;-78
2022/02/23 02:50:21;;;;;;;;;;;6.10;99.90;;;;;;5093131;28;19908;-80
2022/02/23 02:52:47;;;;;;;;;;;6.00;99.90;;;;;;5094426;28;19908;-78
2022/02/23 02:55:12;;;;;;;;;;;6.00;99.90;;;;;;5094738;28;20107;-78
2022/02/23 02:57:39;;;;;;;;;;;6.00;99.90;;;;;;5094738;28;19908;-78
2022/02/23 03:00:08;;;;;;;;;;;6.00;99.90;;;;;;5076492;28;19998;-78
2022/02/23 03:02:34;;;;;;;;;;;6.00;99.90;;;;;;5094433;28;19912;-78
2022/02/23 03:05:00;;;;;;;;;;;6.00;99.90;;;;;;5093177;28;19962;-78
2022/02/23 03:07:26;;;;;;;;;;;6.00;99.90;;;;;;5093121;28;20329;-78
2022/02/23 03:09:52;;;;;;;;;;;6.00;99.90;;;;;;5094492;28;20260;-77
2022/02/23 03:12:19;;;;;;;;;;;6.00;99.90;;;;;;5093228;28;19915;-79
2022/02/23 03:14:46;;;;;;;;;;;6.10;99.90;;;;;;5094304;28;19912;-77
2022/02/23 03:17:11;;;;;;;;;;;6.10;99.90;;;;;;5094140;28;19908;-77
2022/02/23 03:19:37;;;;;;;;;;;6.00;99.90;;;;;;5093150;28;19968;-78
2022/02/23 03:22:03;;;;;;;;;;;6.00;99.90;;;;;;5094385;28;20000;-78
2022/02/23 03:24:28;;;;;;;;;;;6.00;99.90;;;;;;5094060;28;19908;-78
2022/02/23 03:26:54;;;;;;;;;;;6.00;99.90;;;;;;5093921;28;19912;-79
2022/02/23 03:29:19;;;;;;;;;;;6.00;99.90;;;;;;5092880;28;19915;-77
2022/02/23 03:31:45;;;;;;;;;;;6.00;99.90;;;;;;5092839;28;20365;-78
2022/02/23 03:34:11;;;;;;;;;;;6.10;99.90;;;;;;5092874;28;19995;-77
2022/02/23 03:36:36;;;;;;;;;;;6.10;99.90;;;;;;5093173;28;19909;-79
2022/02/23 03:39:02;;;;;;;;;;;6.10;99.90;;;;;;5093672;28;19931;-78
2022/02/23 03:41:28;;;;;;;;;;;6.10;99.90;;;;;;5075687;28;20002;-78
2022/02/23 03:43:54;;;;;;;;;;;6.20;99.90;;;;;;5092553;28;19967;-77
2022/02/23 03:46:19;;;;;;;;;;;6.10;99.90;;;;;;5093733;28;19908;-78
2022/02/23 03:48:45;;;;;;;;;;;6.20;99.90;;;;;;5093517;28;20350;-78
2022/02/23 03:51:11;;;;;;;;;;;6.20;99.90;;;;;;5074764;28;20015;-80
2022/02/23 03:53:37;;;;;;;;;;;6.20;99.90;;;;;;5093663;28;19908;-78
2022/02/23 03:56:03;;;;;;;;;;;6.20;99.90;;;;;;5075477;28;19919;-80
2022/02/23 03:58:29;;;;;;;;;;;6.30;99.90;;;;;;5092383;28;19991;-77
2022/02/23 04:00:54;;;;;;;;;;;6.20;99.90;;;;;;5093556;28;20382;-78
2022/02/23 04:03:20;;;;;;;;;;;6.20;99.90;;;;;;5093413;28;19915;-76
2022/02/23 04:05:45;;;;;;;;;;;6.30;99.90;;;;;;5092158;28;19908;-76
2022/02/23 04:08:11;;;;;;;;;;;6.30;99.90;;;;;;5092297;28;19912;-77
2022/02/23 04:10:37;;;;;;;;;;;6.30;99.90;;;;;;5093470;28;19912;-77
2022/02/23 04:13:05;;;;;;;;;;;6.20;99.90;;;;;;5093435;28;19922;-80
2022/02/23 04:15:31;;;;;;;;;;;6.20;99.90;;;;;;5093259;28;20003;-78
2022/02/23 04:17:56;;;;;;;;;;;6.20;99.90;;;;;;5093370;28;20334;-78
2022/02/23 04:20:22;;;;;;;;;;;6.20;99.90;;;;;;5074442;28;19938;-77
2022/02/23 04:22:48;;;;;;;;;;;6.20;99.90;;;;;;5093412;28;20377;-78
2022/02/23 04:25:13;;;;;;;;;;;6.20;99.90;;;;;;5093342;28;19951;-78
2022/02/23 04:27:39;;;;;;;;;;;6.20;99.90;;;;;;5093067;28;19935;-78
2022/02/23 04:30:05;;;;;;;;;;;6.10;99.90;;;;;;5075083;28;20024;-76
2022/02/23 04:32:31;;;;;;;;;;;6.20;99.90;;;;;;5093374;28;19913;-75
2022/02/23 04:34:57;;;;;;;;;;;6.10;99.90;;;;;;5091866;28;19951;-76
2022/02/23 04:37:28;;;;;;;;;;;6.10;99.90;;;;;;5092059;28;19919;-76
2022/02/23 04:39:54;;;;;;;;;;;6.10;99.90;;;;;;5093001;28;19916;-78
2022/02/23 04:42:19;;;;;;;;;;;6.00;99.90;;;;;;5093090;28;20006;-78
2022/02/23 04:44:45;;;;;;;;;;;6.10;99.90;;;;;;5093204;28;19915;-76
2022/02/23 04:47:10;;;;;;;;;;;6.10;99.90;;;;;;5092924;28;19918;-76
2022/02/23 04:49:36;;;;;;;;;;;5.90;99.90;;;;;;5092828;28;19916;-76
2022/02/23 04:52:02;;;;;;;;;;;5.40;99.90;;;;;;5093048;28;20101;-76
2022/02/23 04:54:27;;;;;;;;;;;5.20;99.90;;;;;;5092972;28;19936;-78
2022/02/23 04:56:53;;;;;;;;;;;5.10;99.90;;;;;;5091564;28;19912;-78
2022/02/23 04:59:19;;;;;;;;;;;4.80;99.90;;;;;;5093043;28;19896;-78
2022/02/23 05:01:44;;;;;;;;;;;4.70;99.90;;;;;;5092865;28;19916;-78
2022/02/23 05:04:10;;;;;;;;;;;4.70;99.90;;;;;;5096788;28;19914;-81
2022/02/23 05:06:35;;;;;;;;;;;4.70;99.90;;;;;;5096259;28;19908;-78
2022/02/23 05:09:01;;;;;;;;;;;4.70;99.90;;;;;;5097008;28;19958;-78
2022/02/23 05:11:27;;;;;;;;;;;4.50;99.90;;;;;;5095738;28;19908;-79
2022/02/23 05:13:52;;;;;;;;;;;4.50;99.90;;;;;;5095636;28;19915;-78
2022/02/23 05:16:18;;;;;;;;;;;4.60;99.90;;;;;;5097075;28;19915;-78
2022/02/23 05:18:44;;;;;;;;;;;4.50;99.90;;;;;;5095880;28;19953;-78
2022/02/23 05:21:09;;;;;;;;;;;4.30;99.90;;;;;;5096883;28;19908;-78
2022/02/23 05:23:35;;;;;;;;;;;4.30;99.90;;;;;;5095584;28;19965;-80
2022/02/23 05:26:01;;;;;;;;;;;4.30;99.90;;;;;;5096590;28;19999;-79
2022/02/23 05:28:27;;;;;;;;;;;4.30;99.90;;;;;;5095258;28;19912;-78
2022/02/23 05:30:53;;;;;;;;;;;4.30;99.90;;;;;;5096437;28;19908;-78
2022/02/23 05:33:19;;;;;;;;;;;4.40;99.90;;;;;;5096457;28;19909;-78
2022/02/23 05:35:45;;;;;;;;;;;4.60;99.90;;;;;;5095135;28;19927;-78
2022/02/23 05:38:10;;;;;;;;;;;4.60;99.90;;;;;;5095804;28;19960;-78
2022/02/23 05:40:36;;;;;;;;;;;4.70;99.90;;;;;;5094584;28;19994;-79
2022/02/23 05:43:02;;;;;;;;;;;4.90;99.90;;;;;;5096017;28;19912;-81
2022/02/23 05:45:28;;;;;;;;;;;4.70;99.90;;;;;;5095871;28;19908;-78
2022/02/23 05:47:53;;;;;;;;;;;4.70;99.90;;;;;;5077654;28;20381;-81
2022/02/23 05:50:19;;;;;;;;;;;4.60;99.90;;;;;;5094017;28;19914;-76
2022/02/23 05:52:45;;;;;;;;;;;4.80;99.90;;;;;;5094489;28;20007;-76
2022/02/23 05:55:10;;;;;;;;;;;4.90;99.90;;;;;;5094542;28;19916;-76
2022/02/23 05:57:36;;;;;;;;;;;4.90;99.90;;;;;;5077632;28;19908;-76
2022/02/23 06:00:03;;;;;;;;;;;4.80;99.90;;;;;;5094314;28;19919;-76
2022/02/23 06:02:29;;;;;;;;;;;4.90;99.90;;;;;;5077603;28;19947;-76
2022/02/23 06:04:54;;;;;;;;;;;4.80;99.90;;;;;;5095568;28;20287;-77
2022/02/23 06:07:20;;;;;;;;;;;4.80;99.90;;;;;;5077274;28;19961;-76
2022/02/23 06:09:45;;;;;;;;;;;4.70;99.90;;;;;;5094531;28;19908;-76
2022/02/23 06:12:11;;;;;;;;;;;4.70;99.90;;;;;;5094492;28;19994;-78
2022/02/23 06:14:37;;;;;;;;;;;4.90;99.90;;;;;;5076558;28;19955;-77
2022/02/23 06:17:02;;;;;;;;;;;4.80;99.90;;;;;;5095348;28;20045;-78
2022/02/23 06:19:28;;;;;;;;;;;4.70;99.90;;;;;;5093998;28;20002;-75
2022/02/23 06:21:54;;;;;;;;;;;4.50;99.90;;;;;;5094925;28;19915;-78
2022/02/23 06:24:19;;;;;;;;;;;4.60;99.90;;;;;;5077032;28;19912;-79
2022/02/23 06:26:45;;;;;;;;;;;4.60;99.90;;;;;;5095123;28;19905;-78
2022/02/23 06:29:11;;;;;;;;;;;4.50;99.90;;;;;;5095284;28;20393;-81
2022/02/23 06:31:36;;;;;;;;;;;4.50;99.90;;;;;;5093506;28;19947;-80
2022/02/23 06:34:02;;;;;;;;;;;4.60;99.90;;;;;;5074385;28;19908;-78
2022/02/23 06:36:28;;;;;;;;;;;4.50;99.90;;;;;;5092568;28;19912;-78
2022/02/23 06:38:54;;;;;;;;;;;4.40;99.90;;;;;;5093622;28;19912;-78
2022/02/23 06:41:22;;;;;;;;;;;4.40;99.90;;;;;;5093691;28;19915;-78
2022/02/23 06:43:48;;;;;;;;;;;4.50;99.90;;;;;;5093690;28;20363;-78
2022/02/23 06:46:14;;;;;;;;;;;4.50;99.90;;;;;;5093960;28;19912;-77
2022/02/23 06:48:40;;;;;;;;;;;4.60;99.90;;;;;;5093004;28;20375;-78
2022/02/23 06:51:06;;;;;;;;;;;4.70;99.90;;;;;;5094577;28;20006;-78
2022/02/23 06:53:32;;;;;;;;;;;4.80;99.90;;;;;;5092788;28;19909;-78
2022/02/23 06:55:58;;;;;;;;;;;4.60;99.90;;;;;;5093163;28;19931;-78
2022/02/23 06:58:24;;;;;;;;;;;4.60;99.90;;;;;;5093842;28;20313;-77
2022/02/23 07:00:50;;;;;;;;;;;4.70;99.90;;;;;;5096120;28;19909;-77
2022/02/23 07:03:15;;;;;;;;;;;4.60;99.90;;;;;;5094647;28;19914;-79
2022/02/23 07:05:42;;;;;;;;;;;4.50;99.90;;;;;;5093520;28;20283;-77
2022/02/23 07:08:08;;;;;;;;;;;4.40;99.90;;;;;;5090859;28;19916;-77
2022/02/23 07:10:35;;;;;;;;;;;4.40;99.90;;;;;;5090892;28;19919;-78
2022/02/23 07:13:04;;;;;;;;;;;4.30;99.90;;;;;;5090900;28;20365;-77
2022/02/23 07:15:29;;;;;;;;;;;4.30;99.90;;;;;;5091809;28;19995;-81
2022/02/23 07:17:55;;;;;;;;;;;4.10;99.90;;;;;;5092166;28;20017;-80
2022/02/23 07:20:22;;;;;;;;;;;4.10;99.90;;;;;;5093120;28;19999;-77
2022/02/23 07:22:48;;;;;;;;;;;4.20;99.90;;;;;;5075506;28;20364;-77
2022/02/23 07:25:13;;;;;;;;;;;4.20;99.90;;;;;;5072094;28;20015;-77
2022/02/23 07:27:39;;;;;;;;;;;4.20;99.90;;;;;;5093172;28;19912;-77
2022/02/23 07:30:07;;;;;;;;;;;4.30;99.90;;;;;;5093904;28;19908;-77
2022/02/23 07:32:34;;;;;;;;;;;4.10;99.90;;;;;;5093230;28;19908;-77
2022/02/23 07:35:01;;;;;;;;;;;4.10;99.90;;;;;;5092443;28;19964;-77
2022/02/23 07:37:26;;;;;;;;;;;4.10;99.90;;;;;;5074596;28;19908;-77
2022/02/23 07:39:54;;;;;;;;;;;4.00;99.90;;;;;;5092369;28;20280;-78
2022/02/23 07:42:19;;;;;;;;;;;3.90;99.90;;;;;;5088085;28;19909;-77
2022/02/23 07:44:46;;;;;;;;;;;3.90;99.90;;;;;;5067440;28;19908;-77
2022/02/23 07:47:12;;;;;;;;;;;4.00;99.90;;;;;;5081866;28;19958;-77
2022/02/23 07:49:38;;;;;;;;;;;4.10;99.90;;;;;;5092117;28;19916;-79
2022/02/23 07:52:04;;;;;;;;;;;4.10;99.90;;;;;;5092343;28;19919;-77
2022/02/23 07:54:30;;;;;;;;;;;4.20;99.90;;;;;;5074118;28;19999;-78
2022/02/23 07:56:56;;;;;;;;;;;4.30;99.90;;;;;;5075264;28;19943;-78
2022/02/23 07:59:21;;;;;;;;;;;4.40;99.90;;;;;;5090089;28;19984;-78
2022/02/23 08:01:48;;;;;;;;;;;4.50;99.90;;;;;;5079864;28;19915;-77
2022/02/23 08:04:14;;;;;;;;;;;4.70;99.90;;;;;;5094913;28;20274;-79
2022/02/23 08:06:40;;;;;;;;;;;5.00;99.90;;;;;;5098630;28;19958;-78
2022/02/23 08:09:08;;;;;;;;;;;5.00;99.90;;;;;;5081921;28;19962;-78
2022/02/23 08:11:36;;;;;;;;;;;4.90;99.90;;;;;;5097936;28;19912;-78
2022/02/23 08:14:09;;;;;;;;;;;5.00;99.90;;;;;;5078548;28;19909;-78
2022/02/23 08:19:36;;;;;;;;;;;5.30;99.90;;;;;;5098688;28;19912;-78
2022/02/23 08:22:12;;;;;;;;;;;5.40;99.90;;;;;;5096241;28;19923;-78
2022/02/23 08:24:39;;;;;;;;;;;5.30;99.90;;;;;;5098287;28;19914;-78
2022/02/23 08:27:06;;;;;;;;;;;5.40;99.90;;;;;;5098950;28;19927;-77
2022/02/23 08:29:31;;;;;;;;;;;5.60;99.90;;;;;;5096178;28;19908;-77
2022/02/23 08:31:57;;;;;;;;;;;5.50;99.90;;;;;;5097092;28;19915;-77
2022/02/23 08:34:24;;;;;;;;;;;5.50;99.90;;;;;;5094806;28;19912;-77
2022/02/23 08:36:50;;;;;;;;;;;5.50;99.90;;;;;;5095307;28;19914;-77
2022/02/23 08:39:16;;;;;;;;;;;5.60;99.90;;;;;;5099395;28;20419;-78
2022/02/23 08:41:43;;;;;;;;;;;5.50;99.90;;;;;;5099404;28;19946;-77
2022/02/23 08:44:10;;;;;;;;;;;5.50;99.90;;;;;;5097548;28;19941;-77
2022/02/23 08:46:39;;;;;;;;;;;5.50;99.90;;;;;;5098601;28;19912;-77
2022/02/23 08:49:07;;;;;;;;;;;5.50;99.90;;;;;;5099126;28;19916;-77
2022/02/23 08:51:33;;;;;;;;;;;5.70;99.90;;;;;;5097638;28;19908;-76
2022/02/23 08:53:59;;;;;;;;;;;5.60;99.90;;;;;;5097866;28;19908;-77
2022/02/23 08:56:24;;;;;;;;;;;5.60;99.90;;;;;;5099101;28;19919;-77
2022/02/23 08:58:50;;;;;;;;;;;5.60;99.90;;;;;;5098398;28;19915;-77
2022/02/23 09:01:16;;;;;;;;;;;5.60;99.90;;;;;;5101022;28;19915;-77
2022/02/23 09:03:42;;;;;;;;;;;5.80;99.90;;;;;;5099473;28;19908;-77
2022/02/23 09:06:08;;;;;;;;;;;5.90;99.90;;;;;;5099595;28;19957;-77
2022/02/23 09:08:33;;;;;;;;;;;5.90;99.90;;;;;;5099136;28;19916;-78
2022/02/23 09:10:59;;;;;;;;;;;6.00;99.90;;;;;;5098390;28;19931;-78
2022/02/23 09:13:25;;;;;;;;;;;6.00;99.90;;;;;;5100460;28;20348;-77
2022/02/23 09:15:51;;;;;;;;;;;6.00;99.90;;;;;;5099031;28;20351;-77
2022/02/23 09:18:16;;;;;;;;;;;6.20;99.90;;;;;;5100214;28;19908;-78
2022/02/23 09:20:42;;;;;;;;;;;6.40;99.90;;;;;;5099616;28;20566;-77
2022/02/23 09:23:07;;;;;;;;;;;6.40;99.90;;;;;;5098605;28;19955;-77
2022/02/23 09:25:33;;;;;;;;;;;6.00;99.90;;;;;;5097011;28;19996;-78
2022/02/23 09:27:59;;;;;;;;;;;6.10;99.90;;;;;;5098808;28;19920;-77
2022/02/23 09:30:24;;;;;;;;;;;6.20;99.90;;;;;;5098750;28;19908;-78
2022/02/23 09:32:50;;;;;;;;;;;6.50;99.90;;;;;;5098545;28;19914;-77
2022/02/23 09:35:18;;;;;;;;;;;7.00;99.90;;;;;;5091017;28;20359;-77
2022/02/23 09:37:43;;;;;;;;;;;7.30;99.90;;;;;;5097047;28;19974;-77
2022/02/23 09:40:09;;;;;;;;;;;7.30;99.90;;;;;;5098065;28;19908;-77
2022/02/23 09:42:35;;;;;;;;;;;7.50;99.90;;;;;;5099740;28;19909;-78
2022/02/23 09:45:03;;;;;;;;;;;7.70;99.90;;;;;;5099135;28;20402;-78
2022/02/23 09:47:32;;;;;;;;;;;7.90;99.90;;;;;;5099068;28;20402;-77
2022/02/23 09:50:08;;;;;;;;;;;7.90;99.90;;;;;;5098297;28;19912;-77
2022/02/23 09:52:34;;;;;;;;;;;7.80;99.90;;;;;;5097360;28;19943;-77
2022/02/23 09:55:00;;;;;;;;;;;7.70;99.90;;;;;;5081123;28;19909;-78
2022/02/23 09:57:28;;;;;;;;;;;7.80;99.90;;;;;;5080630;28;20356;-77
2022/02/23 09:59:53;;;;;;;;;;;7.70;99.90;;;;;;5088351;28;19951;-77
2022/02/23 10:02:20;;;;;;;;;;;7.70;99.90;;;;;;5078833;28;19915;-77
2022/02/23 10:04:48;;;;;;;;;;;7.80;99.90;;;;;;5095620;28;19939;-77
2022/02/23 10:07:13;;;;;;;;;;;7.60;99.90;;;;;;5095060;28;20359;-77
2022/02/23 10:09:43;;;;;;;;;;;7.80;99.90;;;;;;5097690;28;19908;-77
2022/02/23 10:12:29;;;;;;;;;;;8.00;99.90;;;;;;5098433;28;19912;-77
2022/02/23 10:15:16;;;;;;;;;;;8.40;99.90;;;;;;5099708;28;19908;-77
2022/02/23 10:17:47;;;;;;;;;;;8.80;99.90;;;;;;5081642;28;20367;-77
2022/02/23 10:20:20;;;;;;;;;;;9.40;99.90;;;;;;5098327;28;19919;-78
2022/02/23 10:22:45;;;;;;;;;;;10.50;99.90;;;;;;5092062;28;19915;-75
2022/02/23 10:25:11;;;;;;;;;;;11.70;96.60;;;;;;5094999;28;20303;-76
2022/02/23 10:27:38;;;;;;;;;;;11.90;90.70;;;;;;5094055;28;19918;-77
2022/02/23 10:30:04;;;;;;;;;;;12.30;89.70;;;;;;5093715;28;19947;-77
2022/02/23 10:32:30;;;;;;;;;;;13.20;79.90;;;;;;5093656;28;19951;-77
2022/02/23 10:34:58;;;;;;;;;;;13.70;72.00;;;;;;5073922;28;20007;-77
2022/02/23 10:37:25;;;;;;;;;;;14.00;69.90;;;;;;5092169;28;20544;-77
2022/02/23 10:39:56;;;;;;;;;;;14.60;70.20;;;;;;5093400;28;19919;-77
2022/02/23 10:42:26;;;;;;;;;;;14.70;64.20;;;;;;5093757;28;20291;-77
2022/02/23 10:44:53;;;;;;;;;;;13.90;64.50;;;;;;5094714;28;19908;-77
2022/02/23 10:47:23;;;;;;;;;;;14.40;62.90;;;;;;5076269;28;20260;-77
2022/02/23 10:50:02;;;;;;;;;;;14.90;59.80;;;;;;5094740;28;19920;-77
2022/02/23 10:52:28;;;;;;;;;;;15.70;59.90;;;;;;5092799;28;19915;-77
2022/02/23 10:55:09;;;;;;;;;;;16.10;55.80;;;;;;5094013;28;20360;-77
2022/02/23 10:57:35;;;;;;;;;;;15.90;56.30;;;;;;5093655;28;19914;-77
2022/02/23 11:00:19;;;;;;;;;;;15.70;57.60;;;;;;5093422;28;19994;-77
2022/02/23 11:02:46;;;;;;;;;;;15.70;56.40;;;;;;5094529;28;19953;-77
2022/02/23 11:05:12;;;;;;;;;;;14.50;59.00;;;;;;5094852;28;19915;-77
2022/02/23 11:07:38;;;;;;;;;;;13.60;63.10;;;;;;5094129;28;20008;-76
2022/02/23 11:10:04;;;;;;;;;;;14.20;61.50;;;;;;5092968;28;19912;-76
2022/02/23 11:12:31;;;;;;;;;;;14.50;58.40;;;;;;5091693;28;19957;-77
2022/02/23 11:14:57;;;;;;;;;;;13.80;59.90;;;;;;5078297;28;19919;-77
2022/02/23 11:17:23;;;;;;;;;;;13.30;61.10;;;;;;5089240;28;19908;-77
2022/02/23 11:19:49;;;;;;;;;;;13.30;63.10;;;;;;5093064;28;20000;-77
2022/02/23 11:22:15;;;;;;;;;;;13.50;62.10;;;;;;5093133;28;20393;-76
2022/02/23 11:24:41;;;;;;;;;;;14.40;62.60;;;;;;5093093;28;19939;-76
2022/02/23 11:27:09;;;;;;;;;;;15.50;58.30;;;;;;5092602;28;19908;-76
2022/02/23 11:29:38;;;;;;;;;;;15.80;56.70;;;;;;5094651;28;19995;-77
2022/02/23 11:32:04;;;;;;;;;;;16.30;55.40;;;;;;5093375;28;19967;-76
2022/02/23 11:34:30;;;;;;;;;;;16.80;55.10;;;;;;5082323;28;19912;-76
2022/02/23 11:36:56;;;;;;;;;;;17.60;52.60;;;;;;5075110;28;19908;-76
2022/02/23 11:39:23;;;;;;;;;;;18.20;50.70;;;;;;5094178;28;19931;-77
2022/02/23 11:41:54;;;;;;;;;;;18.50;50.30;;;;;;5093317;28;20341;-76
2022/02/23 11:44:23;;;;;;;;;;;18.70;50.10;;;;;;5075632;28;20394;-77
2022/02/23 11:46:52;;;;;;;;;;;18.20;49.00;;;;;;5091871;28;19915;-76
2022/02/23 11:49:21;;;;;;;;;;;18.10;50.30;;;;;;5094395;28;19923;-76
2022/02/23 11:51:47;;;;;;;;;;;17.60;50.40;;;;;;5092591;28;20279;-76
2022/02/23 11:54:13;;;;;;;;;;;17.50;51.40;;;;;;5092988;28;19961;-76
2022/02/23 11:56:48;;;;;;;;;;;17.80;52.90;;;;;;5092420;28;19975;-77
2022/02/23 11:59:32;;;;;;;;;;;18.00;51.30;;;;;;5094891;28;19974;-76
2022/02/23 12:01:59;;;;;;;;;;;17.60;51.70;;;;;;5090919;28;19912;-77
2022/02/23 12:04:44;;;;;;;;;;;17.60;51.00;;;;;;5092367;28;19915;-76
2022/02/23 12:07:10;;;;;;;;;;;18.20;51.10;;;;;;5093476;28;19912;-76
2022/02/23 12:09:45;;;;;;;;;;;18.70;48.70;;;;;;5091944;28;19908;-76
2022/02/23 12:12:29;;;;;;;;;;;18.90;47.50;;;;;;5094284;28;20010;-76
2022/02/23 12:14:55;;;;;;;;;;;18.50;49.10;;;;;;5092340;28;19908;-77
2022/02/23 12:17:39;;;;;;;;;;;17.90;48.90;;;;;;5075690;28;19908;-77
2022/02/23 12:20:05;;;;;;;;;;;17.90;49.70;;;;;;5094586;28;19967;-75
2022/02/23 12:22:36;;;;;;;;;;;17.70;50.00;;;;;;5094862;28;19955;-78
2022/02/23 12:25:04;;;;;;;;;;;18.20;50.10;;;;;;5097748;28;19923;-77
2022/02/23 12:27:30;;;;;;;;;;;18.80;49.00;;;;;;5060068;28;19927;-77
2022/02/23 12:29:58;;;;;;;;;;;18.60;48.30;;;;;;5091721;28;19908;-77
2022/02/23 12:32:25;;;;;;;;;;;18.80;48.20;;;;;;5073986;28;19916;-77
2022/02/23 12:34:57;;;;;;;;;;;19.00;48.80;;;;;;5074264;28;19912;-76
2022/02/23 12:37:23;;;;;;;;;;;18.90;49.10;;;;;;5073757;28;20014;-76
2022/02/23 12:39:49;;;;;;;;;;;19.30;47.70;;;;;;5091130;28;19909;-76
2022/02/23 12:42:16;;;;;;;;;;;19.50;47.00;;;;;;5092616;28;20363;-75
2022/02/23 12:44:43;;;;;;;;;;;19.10;47.40;;;;;;5074090;28;19912;-76
2022/02/23 12:47:09;;;;;;;;;;;18.70;48.00;;;;;;5090917;28;19958;-77
2022/02/23 12:49:36;;;;;;;;;;;18.70;46.90;;;;;;5090975;28;20299;-77
2022/02/23 12:52:02;;;;;;;;;;;18.30;48.30;;;;;;5093830;28;19912;-78
2022/02/23 12:54:28;;;;;;;;;;;17.80;48.20;;;;;;5091372;28;20252;-77
2022/02/23 12:56:55;;;;;;;;;;;18.60;49.10;;;;;;5073285;28;19912;-75
2022/02/23 12:59:22;;;;;;;;;;;19.10;47.10;;;;;;5090674;28;19907;-76
2022/02/23 13:01:50;;;;;;;;;;;19.00;46.50;;;;;;5090474;28;19931;-77
2022/02/23 13:04:19;;;;;;;;;;;18.90;47.60;;;;;;5091318;28;20224;-77
2022/02/23 13:06:50;;;;;;;;;;;19.10;47.20;;;;;;5094845;28;19909;-76
2022/02/23 13:09:19;;;;;;;;;;;18.90;46.10;;;;;;5078263;28;19912;-77
2022/02/23 13:11:49;;;;;;;;;;;18.20;48.10;;;;;;5095964;28;19913;-77
2022/02/23 13:14:17;;;;;;;;;;;17.80;49.20;;;;;;5100359;28;19951;-78
2022/02/23 13:16:44;;;;;;;;;;;17.30;49.50;;;;;;5102271;28;19908;-78
2022/02/23 13:19:14;;;;;;;;;;;17.00;50.60;;;;;;5078521;28;20348;-78
2022/02/23 13:21:45;;;;;;;;;;;16.60;51.60;;;;;;5079559;28;19915;-76
2022/02/23 13:24:11;;;;;;;;;;;16.40;51.10;;;;;;5099666;28;19915;-77
2022/02/23 13:26:38;;;;;;;;;;;16.50;52.10;;;;;;5098562;28;19908;-77
2022/02/23 13:29:05;;;;;;;;;;;15.60;53.90;;;;;;5097895;28;19923;-77
2022/02/23 13:31:31;;;;;;;;;;;15.70;53.40;;;;;;5099960;28;19908;-77
2022/02/23 13:34:33;;;;;;;;;;;15.20;52.90;;;;;;5082197;28;19961;-77
2022/02/23 13:37:00;;;;;;;;;;;14.90;54.20;;;;;;5039352;28;19908;-77
2022/02/23 13:39:27;;;;;;;;;;;14.40;55.50;;;;;;5085998;28;20307;-78
2022/02/23 13:42:07;;;;;;;;;;;14.10;55.50;;;;;;5097382;28;19908;-76
2022/02/23 13:44:34;;;;;;;;;;;13.80;57.10;;;;;;5098602;28;19908;-77
2022/02/23 13:47:02;;;;;;;;;;;13.60;57.50;;;;;;5079909;28;19975;-77
2022/02/23 13:49:28;;;;;;;;;;;13.40;58.20;;;;;;5080704;28;19923;-76
2022/02/23 13:51:59;;;;;;;;;;;13.60;58.80;;;;;;5098586;28;19912;-77
2022/02/23 13:54:25;;;;;;;;;;;14.10;56.60;;;;;;5097671;28;20287;-77
2022/02/23 13:56:51;;;;;;;;;;;14.10;56.90;;;;;;5080969;28;19967;-76
2022/02/23 13:59:18;;;;;;;;;;;13.60;57.70;;;;;;5098891;28;20345;-76
2022/02/23 14:01:56;;;;;;;;;;;13.90;58.10;;;;;;5096772;28;19919;-77
2022/02/23 14:04:22;;;;;;;;;;;13.70;57.10;;;;;;5097711;28;20360;-77
2022/02/23 14:06:50;;;;;;;;;;;13.70;58.10;;;;;;5098154;28;19916;-77
2022/02/23 14:09:16;;;;;;;;;;;13.30;57.80;;;;;;5097031;28;19912;-77
2022/02/23 14:11:45;;;;;;;;;;;13.20;58.10;;;;;;5098735;28;19908;-77
2022/02/23 14:14:17;;;;;;;;;;;13.10;58.70;;;;;;5098111;28;19908;-77
2022/02/23 14:16:45;;;;;;;;;;;13.10;59.40;;;;;;5096419;28;19919;-77
2022/02/23 14:19:12;;;;;;;;;;;13.50;60.20;;;;;;5079879;28;19915;-76
2022/02/23 14:21:38;;;;;;;;;;;13.60;59.20;;;;;;5082594;28;19908;-77
2022/02/23 14:24:05;;;;;;;;;;;13.40;58.60;;;;;;5098586;28;19918;-77
2022/02/23 14:26:31;;;;;;;;;;;13.30;60.00;;;;;;5098249;28;19908;-77